« Back
NWS Peachtree City, Ga » Text Product » ATL Terminal Aerodrome Forecast


Printer-friendly Version
Current Version              Previous Versions:   1  2  3  4  5  6  7  8  9  

Terminal Aerodrome Forecast

641
FTUS42 KFFC 242320
TAFATL
TAF
KATL 242320Z 2500/2606 12009KT P6SM SCT050
     FM250800 12009KT P6SM BKN012
     FM251100 11009KT P6SM BKN007
     FM251500 12008KT P6SM OVC015
     FM251700 13007KT P6SM VCSH BKN025
     FM252000 13007KT P6SM VCSH BKN035 PROB30 2520/2602 VRB15G25KT
      3SM TSRA BR BKN025CB=



USA.gov is the U.S. government's official web portal to all federal, state and local government web resources and services.